sensor_id;sensor_type;location;lat;lon;timestamp;temperature;humidity
55828;DHT22;41758;51.992;5.890;2022-08-19T00:00:17;26.60;62.10
55828;DHT22;41758;51.992;5.890;2022-08-19T00:02:45;26.60;62.10
55828;DHT22;41758;51.992;5.890;2022-08-19T00:05:13;26.60;61.90
55828;DHT22;41758;51.992;5.890;2022-08-19T00:07:42;26.60;61.50
55828;DHT22;41758;51.992;5.890;2022-08-19T00:10:13;26.60;61.40
55828;DHT22;41758;51.992;5.890;2022-08-19T00:12:42;26.60;61.30
55828;DHT22;41758;51.992;5.890;2022-08-19T00:15:16;26.60;61.20
55828;DHT22;41758;51.992;5.890;2022-08-19T00:17:43;26.60;60.90
55828;DHT22;41758;51.992;5.890;2022-08-19T00:20:12;26.60;61.30
55828;DHT22;41758;51.992;5.890;2022-08-19T00:22:38;26.60;61.20
55828;DHT22;41758;51.992;5.890;2022-08-19T00:25:09;26.60;61.40
55828;DHT22;41758;51.992;5.890;2022-08-19T00:27:35;26.60;61.60
55828;DHT22;41758;51.992;5.890;2022-08-19T00:30:02;26.60;61.60
55828;DHT22;41758;51.992;5.890;2022-08-19T00:32:29;26.60;61.80
55828;DHT22;41758;51.992;5.890;2022-08-19T00:34:55;26.60;61.80
55828;DHT22;41758;51.992;5.890;2022-08-19T00:37:24;26.60;61.80
55828;DHT22;41758;51.992;5.890;2022-08-19T00:39:51;26.50;61.60
55828;DHT22;41758;51.992;5.890;2022-08-19T00:42:18;26.50;61.70
55828;DHT22;41758;51.992;5.890;2022-08-19T00:44:44;26.60;61.80
55828;DHT22;41758;51.992;5.890;2022-08-19T00:47:10;26.60;61.90
55828;DHT22;41758;51.992;5.890;2022-08-19T00:49:51;26.60;62.00
55828;DHT22;41758;51.992;5.890;2022-08-19T00:52:24;26.60;61.90
55828;DHT22;41758;51.992;5.890;2022-08-19T00:54:51;26.60;62.00
55828;DHT22;41758;51.992;5.890;2022-08-19T00:57:25;26.50;62.20
55828;DHT22;41758;51.992;5.890;2022-08-19T00:59:54;26.60;62.20
55828;DHT22;41758;51.992;5.890;2022-08-19T01:02:21;26.60;62.10
55828;DHT22;41758;51.992;5.890;2022-08-19T01:04:47;26.50;62.00
55828;DHT22;41758;51.992;5.890;2022-08-19T01:07:13;26.50;62.00
55828;DHT22;41758;51.992;5.890;2022-08-19T01:09:39;26.50;62.00
55828;DHT22;41758;51.992;5.890;2022-08-19T01:12:05;26.50;62.10
55828;DHT22;41758;51.992;5.890;2022-08-19T01:14:31;26.50;62.20
55828;DHT22;41758;51.992;5.890;2022-08-19T01:16:57;26.50;62.20
55828;DHT22;41758;51.992;5.890;2022-08-19T01:19:39;26.50;62.20
55828;DHT22;41758;51.992;5.890;2022-08-19T01:22:31;26.50;62.00
55828;DHT22;41758;51.992;5.890;2022-08-19T01:25:01;26.50;62.10
55828;DHT22;41758;51.992;5.890;2022-08-19T01:27:38;26.50;62.30
55828;DHT22;41758;51.992;5.890;2022-08-19T01:30:06;26.50;62.10
55828;DHT22;41758;51.992;5.890;2022-08-19T01:32:32;26.40;62.30
55828;DHT22;41758;51.992;5.890;2022-08-19T01:34:58;26.40;62.40
55828;DHT22;41758;51.992;5.890;2022-08-19T01:37:27;26.40;62.50
55828;DHT22;41758;51.992;5.890;2022-08-19T01:39:54;26.40;62.50
55828;DHT22;41758;51.992;5.890;2022-08-19T01:42:20;26.40;62.40
55828;DHT22;41758;51.992;5.890;2022-08-19T01:44:47;26.40;62.40
55828;DHT22;41758;51.992;5.890;2022-08-19T01:47:13;26.40;62.50
55828;DHT22;41758;51.992;5.890;2022-08-19T01:49:42;26.40;62.50
55828;DHT22;41758;51.992;5.890;2022-08-19T01:52:07;26.40;62.50
55828;DHT22;41758;51.992;5.890;2022-08-19T01:54:33;26.40;62.50
55828;DHT22;41758;51.992;5.890;2022-08-19T01:57:03;26.50;62.40
55828;DHT22;41758;51.992;5.890;2022-08-19T01:59:31;26.50;62.30
55828;DHT22;41758;51.992;5.890;2022-08-19T02:01:57;26.40;62.20
55828;DHT22;41758;51.992;5.890;2022-08-19T02:04:22;26.40;62.20
55828;DHT22;41758;51.992;5.890;2022-08-19T02:06:49;26.40;62.30
55828;DHT22;41758;51.992;5.890;2022-08-19T02:09:14;26.40;62.30
55828;DHT22;41758;51.992;5.890;2022-08-19T02:11:41;26.40;62.30
55828;DHT22;41758;51.992;5.890;2022-08-19T02:14:08;26.50;62.30
55828;DHT22;41758;51.992;5.890;2022-08-19T02:16:35;26.40;62.30
55828;DHT22;41758;51.992;5.890;2022-08-19T02:19:09;26.40;62.40
55828;DHT22;41758;51.992;5.890;2022-08-19T02:21:36;26.40;62.20
55828;DHT22;41758;51.992;5.890;2022-08-19T02:24:02;26.40;62.30
55828;DHT22;41758;51.992;5.890;2022-08-19T02:26:28;26.40;62.30
55828;DHT22;41758;51.992;5.890;2022-08-19T02:28:54;26.50;62.30
55828;DHT22;41758;51.992;5.890;2022-08-19T02:31:21;26.40;62.20
55828;DHT22;41758;51.992;5.890;2022-08-19T02:33:48;26.40;62.10
55828;DHT22;41758;51.992;5.890;2022-08-19T02:36:15;26.40;62.20
55828;DHT22;41758;51.992;5.890;2022-08-19T02:38:41;26.40;62.20
55828;DHT22;41758;51.992;5.890;2022-08-19T02:41:13;26.40;62.20
55828;DHT22;41758;51.992;5.890;2022-08-19T02:43:40;26.40;62.10
55828;DHT22;41758;51.992;5.890;2022-08-19T02:46:19;26.40;62.20
55828;DHT22;41758;51.992;5.890;2022-08-19T02:48:50;26.40;62.10
55828;DHT22;41758;51.992;5.890;2022-08-19T02:51:38;26.40;62.20
55828;DHT22;41758;51.992;5.890;2022-08-19T02:54:04;26.40;62.10
55828;DHT22;41758;51.992;5.890;2022-08-19T02:56:31;26.30;62.20
55828;DHT22;41758;51.992;5.890;2022-08-19T02:58:57;26.30;62.20
55828;DHT22;41758;51.992;5.890;2022-08-19T03:01:26;26.30;62.20
55828;DHT22;41758;51.992;5.890;2022-08-19T03:03:52;26.30;62.20
55828;DHT22;41758;51.992;5.890;2022-08-19T03:06:19;26.30;62.50
55828;DHT22;41758;51.992;5.890;2022-08-19T03:08:48;26.30;62.40
55828;DHT22;41758;51.992;5.890;2022-08-19T03:13:46;26.30;62.30
55828;DHT22;41758;51.992;5.890;2022-08-19T03:16:15;26.30;62.20
55828;DHT22;41758;51.992;5.890;2022-08-19T03:18:41;26.30;62.30
55828;DHT22;41758;51.992;5.890;2022-08-19T03:21:08;26.30;62.40
55828;DHT22;41758;51.992;5.890;2022-08-19T03:23:34;26.30;62.30
55828;DHT22;41758;51.992;5.890;2022-08-19T03:26:04;26.30;62.20
55828;DHT22;41758;51.992;5.890;2022-08-19T03:28:30;26.30;62.00
55828;DHT22;41758;51.992;5.890;2022-08-19T03:31:03;26.30;62.10
55828;DHT22;41758;51.992;5.890;2022-08-19T03:33:30;26.30;61.90
55828;DHT22;41758;51.992;5.890;2022-08-19T03:36:22;26.30;62.10
55828;DHT22;41758;51.992;5.890;2022-08-19T03:38:51;26.20;61.90
55828;DHT22;41758;51.992;5.890;2022-08-19T03:41:19;26.20;62.20
55828;DHT22;41758;51.992;5.890;2022-08-19T03:43:46;26.20;62.10
55828;DHT22;41758;51.992;5.890;2022-08-19T03:46:16;26.20;62.20
55828;DHT22;41758;51.992;5.890;2022-08-19T03:48:43;26.20;62.40
55828;DHT22;41758;51.992;5.890;2022-08-19T03:51:19;26.20;62.50
55828;DHT22;41758;51.992;5.890;2022-08-19T03:53:46;26.30;62.20
55828;DHT22;41758;51.992;5.890;2022-08-19T03:56:12;26.20;62.30
55828;DHT22;41758;51.992;5.890;2022-08-19T03:58:40;26.20;62.20
55828;DHT22;41758;51.992;5.890;2022-08-19T04:01:11;26.20;62.20
55828;DHT22;41758;51.992;5.890;2022-08-19T04:03:38;26.20;62.00
55828;DHT22;41758;51.992;5.890;2022-08-19T04:08:39;26.20;62.30
55828;DHT22;41758;51.992;5.890;2022-08-19T04:11:10;26.20;62.60
55828;DHT22;41758;51.992;5.890;2022-08-19T04:13:36;26.20;62.40
55828;DHT22;41758;51.992;5.890;2022-08-19T04:16:02;26.20;62.50
55828;DHT22;41758;51.992;5.890;2022-08-19T04:18:28;26.20;62.50
55828;DHT22;41758;51.992;5.890;2022-08-19T04:20:56;26.10;62.60
55828;DHT22;41758;51.992;5.890;2022-08-19T04:23:22;26.20;62.60
55828;DHT22;41758;51.992;5.890;2022-08-19T04:25:48;26.20;62.50
55828;DHT22;41758;51.992;5.890;2022-08-19T04:28:14;26.10;62.50
55828;DHT22;41758;51.992;5.890;2022-08-19T04:30:46;26.10;62.50
55828;DHT22;41758;51.992;5.890;2022-08-19T04:33:14;26.10;62.60
55828;DHT22;41758;51.992;5.890;2022-08-19T04:35:43;26.10;62.60
55828;DHT22;41758;51.992;5.890;2022-08-19T04:38:11;26.10;62.50
55828;DHT22;41758;51.992;5.890;2022-08-19T04:40:42;26.10;62.60
55828;DHT22;41758;51.992;5.890;2022-08-19T04:43:27;26.10;62.50
55828;DHT22;41758;51.992;5.890;2022-08-19T04:45:55;26.10;62.60
55828;DHT22;41758;51.992;5.890;2022-08-19T04:48:20;26.10;62.50
55828;DHT22;41758;51.992;5.890;2022-08-19T04:50:52;26.10;62.50
55828;DHT22;41758;51.992;5.890;2022-08-19T04:53:27;26.10;62.50
55828;DHT22;41758;51.992;5.890;2022-08-19T04:55:58;26.10;62.40
55828;DHT22;41758;51.992;5.890;2022-08-19T04:58:25;26.10;62.10
55828;DHT22;41758;51.992;5.890;2022-08-19T05:00:51;26.10;62.20
55828;DHT22;41758;51.992;5.890;2022-08-19T05:03:18;26.10;62.10
55828;DHT22;41758;51.992;5.890;2022-08-19T05:05:45;26.00;62.20
55828;DHT22;41758;51.992;5.890;2022-08-19T05:08:14;26.10;62.40
55828;DHT22;41758;51.992;5.890;2022-08-19T05:10:45;26.10;62.40
55828;DHT22;41758;51.992;5.890;2022-08-19T05:13:12;26.10;62.50
55828;DHT22;41758;51.992;5.890;2022-08-19T05:15:38;26.10;62.50
55828;DHT22;41758;51.992;5.890;2022-08-19T05:18:04;26.10;62.50
55828;DHT22;41758;51.992;5.890;2022-08-19T05:20:48;26.10;62.50
55828;DHT22;41758;51.992;5.890;2022-08-19T05:23:32;26.10;62.40
55828;DHT22;41758;51.992;5.890;2022-08-19T05:25:58;26.10;62.40
55828;DHT22;41758;51.992;5.890;2022-08-19T05:28:27;26.10;62.50
55828;DHT22;41758;51.992;5.890;2022-08-19T05:30:53;26.10;62.30
55828;DHT22;41758;51.992;5.890;2022-08-19T05:33:21;26.10;62.40
55828;DHT22;41758;51.992;5.890;2022-08-19T05:35:47;26.10;62.40
55828;DHT22;41758;51.992;5.890;2022-08-19T05:38:18;26.10;62.60
55828;DHT22;41758;51.992;5.890;2022-08-19T05:40:44;26.10;62.60
55828;DHT22;41758;51.992;5.890;2022-08-19T05:43:12;26.10;62.60
55828;DHT22;41758;51.992;5.890;2022-08-19T05:45:43;26.10;62.60
55828;DHT22;41758;51.992;5.890;2022-08-19T05:48:13;26.10;62.60
55828;DHT22;41758;51.992;5.890;2022-08-19T05:50:40;26.10;62.50
55828;DHT22;41758;51.992;5.890;2022-08-19T05:53:07;26.10;62.70
55828;DHT22;41758;51.992;5.890;2022-08-19T05:55:34;26.10;62.80
55828;DHT22;41758;51.992;5.890;2022-08-19T05:58:00;26.10;62.80
55828;DHT22;41758;51.992;5.890;2022-08-19T06:00:27;26.10;63.00
55828;DHT22;41758;51.992;5.890;2022-08-19T06:02:54;26.10;63.10
55828;DHT22;41758;51.992;5.890;2022-08-19T06:05:21;26.20;63.00
55828;DHT22;41758;51.992;5.890;2022-08-19T06:08:06;26.20;63.00
55828;DHT22;41758;51.992;5.890;2022-08-19T06:11:38;26.10;62.90
55828;DHT22;41758;51.992;5.890;2022-08-19T06:14:24;26.20;62.90
55828;DHT22;41758;51.992;5.890;2022-08-19T06:17:11;26.20;63.10
55828;DHT22;41758;51.992;5.890;2022-08-19T06:19:42;26.20;63.20
55828;DHT22;41758;51.992;5.890;2022-08-19T06:22:12;26.20;63.10
55828;DHT22;41758;51.992;5.890;2022-08-19T06:24:38;26.20;63.20
55828;DHT22;41758;51.992;5.890;2022-08-19T06:27:04;26.20;63.20
55828;DHT22;41758;51.992;5.890;2022-08-19T06:29:35;26.20;63.20
55828;DHT22;41758;51.992;5.890;2022-08-19T06:32:03;26.20;63.20
55828;DHT22;41758;51.992;5.890;2022-08-19T06:34:31;26.30;63.20
55828;DHT22;41758;51.992;5.890;2022-08-19T06:36:58;26.30;63.10
55828;DHT22;41758;51.992;5.890;2022-08-19T06:39:31;26.30;63.10
55828;DHT22;41758;51.992;5.890;2022-08-19T06:42:01;26.30;63.00
55828;DHT22;41758;51.992;5.890;2022-08-19T06:44:36;26.30;62.80
55828;DHT22;41758;51.992;5.890;2022-08-19T06:47:13;26.30;62.70
55828;DHT22;41758;51.992;5.890;2022-08-19T06:49:42;26.30;62.90
55828;DHT22;41758;51.992;5.890;2022-08-19T06:52:09;26.30;62.70
55828;DHT22;41758;51.992;5.890;2022-08-19T06:54:40;26.30;62.60
55828;DHT22;41758;51.992;5.890;2022-08-19T06:57:08;26.30;62.50
55828;DHT22;41758;51.992;5.890;2022-08-19T06:59:38;26.40;62.60
55828;DHT22;41758;51.992;5.890;2022-08-19T07:02:05;26.40;62.70
55828;DHT22;41758;51.992;5.890;2022-08-19T07:04:34;26.40;62.70
55828;DHT22;41758;51.992;5.890;2022-08-19T07:07:04;26.40;62.70
55828;DHT22;41758;51.992;5.890;2022-08-19T07:09:39;26.40;62.70
55828;DHT22;41758;51.992;5.890;2022-08-19T07:12:07;26.50;62.60
55828;DHT22;41758;51.992;5.890;2022-08-19T07:14:33;26.50;62.60
55828;DHT22;41758;51.992;5.890;2022-08-19T07:17:06;26.50;62.60
55828;DHT22;41758;51.992;5.890;2022-08-19T07:19:33;26.50;62.30
55828;DHT22;41758;51.992;5.890;2022-08-19T07:22:02;26.50;62.30
55828;DHT22;41758;51.992;5.890;2022-08-19T07:24:29;26.50;62.30
55828;DHT22;41758;51.992;5.890;2022-08-19T07:27:00;26.50;62.40
55828;DHT22;41758;51.992;5.890;2022-08-19T07:29:35;26.50;62.40
55828;DHT22;41758;51.992;5.890;2022-08-19T07:32:11;26.50;62.30
55828;DHT22;41758;51.992;5.890;2022-08-19T07:34:39;26.60;62.40
55828;DHT22;41758;51.992;5.890;2022-08-19T07:37:08;26.60;62.30
55828;DHT22;41758;51.992;5.890;2022-08-19T07:39:35;26.60;62.20
55828;DHT22;41758;51.992;5.890;2022-08-19T07:42:03;26.60;62.20
55828;DHT22;41758;51.992;5.890;2022-08-19T07:44:32;26.60;62.00
55828;DHT22;41758;51.992;5.890;2022-08-19T07:46:59;26.60;61.80
55828;DHT22;41758;51.992;5.890;2022-08-19T07:49:26;26.60;62.00
55828;DHT22;41758;51.992;5.890;2022-08-19T07:51:55;26.60;62.10
55828;DHT22;41758;51.992;5.890;2022-08-19T07:54:23;26.60;62.10
55828;DHT22;41758;51.992;5.890;2022-08-19T07:56:49;26.60;62.20
55828;DHT22;41758;51.992;5.890;2022-08-19T07:59:17;26.60;62.20
55828;DHT22;41758;51.992;5.890;2022-08-19T08:01:43;26.60;62.00
55828;DHT22;41758;51.992;5.890;2022-08-19T08:04:10;26.60;62.10
55828;DHT22;41758;51.992;5.890;2022-08-19T08:06:54;26.60;62.20
55828;DHT22;41758;51.992;5.890;2022-08-19T08:09:41;26.60;62.20
55828;DHT22;41758;51.992;5.890;2022-08-19T08:12:14;26.60;62.20
55828;DHT22;41758;51.992;5.890;2022-08-19T08:14:52;26.50;62.10
55828;DHT22;41758;51.992;5.890;2022-08-19T08:17:20;26.60;62.10
55828;DHT22;41758;51.992;5.890;2022-08-19T08:19:47;26.60;62.00
55828;DHT22;41758;51.992;5.890;2022-08-19T08:22:18;26.60;62.10
55828;DHT22;41758;51.992;5.890;2022-08-19T08:25:14;26.60;62.10
55828;DHT22;41758;51.992;5.890;2022-08-19T08:27:42;26.60;62.20
55828;DHT22;41758;51.992;5.890;2022-08-19T08:30:16;26.70;62.20
55828;DHT22;41758;51.992;5.890;2022-08-19T08:32:42;26.70;62.10
55828;DHT22;41758;51.992;5.890;2022-08-19T08:35:11;26.70;62.10
55828;DHT22;41758;51.992;5.890;2022-08-19T08:37:45;26.70;62.00
55828;DHT22;41758;51.992;5.890;2022-08-19T08:43:39;26.70;61.30
55828;DHT22;41758;51.992;5.890;2022-08-19T08:46:22;26.70;61.60
55828;DHT22;41758;51.992;5.890;2022-08-19T08:51:46;26.70;61.80
55828;DHT22;41758;51.992;5.890;2022-08-19T08:54:19;26.70;61.80
55828;DHT22;41758;51.992;5.890;2022-08-19T08:56:46;26.60;61.90
55828;DHT22;41758;51.992;5.890;2022-08-19T09:01:50;26.70;61.80
55828;DHT22;41758;51.992;5.890;2022-08-19T09:04:16;26.70;61.90
55828;DHT22;41758;51.992;5.890;2022-08-19T09:06:55;26.70;61.80
55828;DHT22;41758;51.992;5.890;2022-08-19T09:09:32;26.70;61.60
55828;DHT22;41758;51.992;5.890;2022-08-19T09:14:58;26.70;61.00
55828;DHT22;41758;51.992;5.890;2022-08-19T09:17:28;26.50;60.10
55828;DHT22;41758;51.992;5.890;2022-08-19T09:22:40;26.60;61.10
55828;DHT22;41758;51.992;5.890;2022-08-19T09:25:08;26.60;61.40
55828;DHT22;41758;51.992;5.890;2022-08-19T09:27:39;26.60;61.20
55828;DHT22;41758;51.992;5.890;2022-08-19T09:30:07;26.70;61.40
55828;DHT22;41758;51.992;5.890;2022-08-19T09:32:33;26.70;61.40
55828;DHT22;41758;51.992;5.890;2022-08-19T09:34:59;26.70;61.50
55828;DHT22;41758;51.992;5.890;2022-08-19T09:37:25;26.80;61.50
55828;DHT22;41758;51.992;5.890;2022-08-19T09:39:52;26.80;61.30
55828;DHT22;41758;51.992;5.890;2022-08-19T09:42:21;26.80;61.20
55828;DHT22;41758;51.992;5.890;2022-08-19T09:44:47;26.90;60.80
55828;DHT22;41758;51.992;5.890;2022-08-19T09:47:16;26.90;60.90
55828;DHT22;41758;51.992;5.890;2022-08-19T09:49:42;26.90;60.90
55828;DHT22;41758;51.992;5.890;2022-08-19T09:52:11;26.90;61.00
55828;DHT22;41758;51.992;5.890;2022-08-19T09:54:38;26.90;60.70
55828;DHT22;41758;51.992;5.890;2022-08-19T09:57:04;27.00;60.80
55828;DHT22;41758;51.992;5.890;2022-08-19T09:59:31;26.90;60.80
55828;DHT22;41758;51.992;5.890;2022-08-19T10:01:59;27.00;60.60
55828;DHT22;41758;51.992;5.890;2022-08-19T10:04:25;27.00;60.80
55828;DHT22;41758;51.992;5.890;2022-08-19T10:07:11;26.90;59.80
55828;DHT22;41758;51.992;5.890;2022-08-19T10:09:37;26.90;60.60
55828;DHT22;41758;51.992;5.890;2022-08-19T10:12:04;27.00;60.70
55828;DHT22;41758;51.992;5.890;2022-08-19T10:14:30;27.00;59.80
55828;DHT22;41758;51.992;5.890;2022-08-19T10:16:56;27.00;60.50
55828;DHT22;41758;51.992;5.890;2022-08-19T10:19:22;27.00;60.40
55828;DHT22;41758;51.992;5.890;2022-08-19T10:21:47;27.10;60.60
55828;DHT22;41758;51.992;5.890;2022-08-19T10:24:13;27.10;60.00
55828;DHT22;41758;51.992;5.890;2022-08-19T10:26:40;27.10;59.80
55828;DHT22;41758;51.992;5.890;2022-08-19T10:29:11;27.10;60.10
55828;DHT22;41758;51.992;5.890;2022-08-19T10:31:37;27.10;60.00
55828;DHT22;41758;51.992;5.890;2022-08-19T10:34:03;27.10;60.10
55828;DHT22;41758;51.992;5.890;2022-08-19T10:36:33;27.10;59.30
55828;DHT22;41758;51.992;5.890;2022-08-19T10:39:07;27.20;59.10
55828;DHT22;41758;51.992;5.890;2022-08-19T10:41:37;27.20;59.70
55828;DHT22;41758;51.992;5.890;2022-08-19T10:44:07;27.20;59.00
55828;DHT22;41758;51.992;5.890;2022-08-19T10:46:37;27.30;58.40
55828;DHT22;41758;51.992;5.890;2022-08-19T10:49:05;27.40;58.80
55828;DHT22;41758;51.992;5.890;2022-08-19T10:51:32;27.60;58.70
55828;DHT22;41758;51.992;5.890;2022-08-19T10:54:17;27.80;58.50
55828;DHT22;41758;51.992;5.890;2022-08-19T10:56:43;28.00;58.20
55828;DHT22;41758;51.992;5.890;2022-08-19T10:59:28;28.30;57.00
55828;DHT22;41758;51.992;5.890;2022-08-19T11:01:59;28.50;56.70
55828;DHT22;41758;51.992;5.890;2022-08-19T11:04:25;28.80;55.90
55828;DHT22;41758;51.992;5.890;2022-08-19T11:06:51;29.00;54.80
55828;DHT22;41758;51.992;5.890;2022-08-19T11:09:19;29.10;54.60
55828;DHT22;41758;51.992;5.890;2022-08-19T11:11:46;29.30;54.50
55828;DHT22;41758;51.992;5.890;2022-08-19T11:14:15;29.40;54.30
55828;DHT22;41758;51.992;5.890;2022-08-19T11:16:43;29.40;54.30
55828;DHT22;41758;51.992;5.890;2022-08-19T11:19:11;29.40;54.30
55828;DHT22;41758;51.992;5.890;2022-08-19T11:21:42;29.40;53.60
55828;DHT22;41758;51.992;5.890;2022-08-19T11:24:12;29.40;53.30
55828;DHT22;41758;51.992;5.890;2022-08-19T11:26:39;29.30;53.40
55828;DHT22;41758;51.992;5.890;2022-08-19T11:29:07;29.30;53.90
55828;DHT22;41758;51.992;5.890;2022-08-19T11:31:38;29.20;54.50
55828;DHT22;41758;51.992;5.890;2022-08-19T11:34:06;29.10;54.90
55828;DHT22;41758;51.992;5.890;2022-08-19T11:36:33;29.10;55.10
55828;DHT22;41758;51.992;5.890;2022-08-19T11:39:04;29.00;54.90
55828;DHT22;41758;51.992;5.890;2022-08-19T11:41:30;28.90;54.80
55828;DHT22;41758;51.992;5.890;2022-08-19T11:43:55;28.90;55.20
55828;DHT22;41758;51.992;5.890;2022-08-19T11:46:23;28.80;54.80
55828;DHT22;41758;51.992;5.890;2022-08-19T11:48:52;28.80;55.40
55828;DHT22;41758;51.992;5.890;2022-08-19T11:51:22;28.80;55.60
55828;DHT22;41758;51.992;5.890;2022-08-19T11:53:50;28.80;55.40
55828;DHT22;41758;51.992;5.890;2022-08-19T11:56:17;28.70;55.60
55828;DHT22;41758;51.992;5.890;2022-08-19T11:58:43;28.70;55.90
55828;DHT22;41758;51.992;5.890;2022-08-19T12:01:11;28.70;56.00
55828;DHT22;41758;51.992;5.890;2022-08-19T12:03:37;28.70;55.90
55828;DHT22;41758;51.992;5.890;2022-08-19T12:06:08;28.70;55.40
55828;DHT22;41758;51.992;5.890;2022-08-19T12:08:36;28.80;55.80
55828;DHT22;41758;51.992;5.890;2022-08-19T12:11:04;28.70;55.80
55828;DHT22;41758;51.992;5.890;2022-08-19T12:13:33;28.70;55.70
55828;DHT22;41758;51.992;5.890;2022-08-19T12:15:59;28.80;55.90
55828;DHT22;41758;51.992;5.890;2022-08-19T12:18:26;28.80;55.80
55828;DHT22;41758;51.992;5.890;2022-08-19T12:20:53;28.80;55.80
55828;DHT22;41758;51.992;5.890;2022-08-19T12:23:20;28.80;55.50
55828;DHT22;41758;51.992;5.890;2022-08-19T12:25:47;28.80;55.50
55828;DHT22;41758;51.992;5.890;2022-08-19T12:28:20;28.80;55.60
55828;DHT22;41758;51.992;5.890;2022-08-19T12:30:47;28.80;55.50
55828;DHT22;41758;51.992;5.890;2022-08-19T12:33:14;28.80;55.70
55828;DHT22;41758;51.992;5.890;2022-08-19T12:35:41;28.80;55.20
55828;DHT22;41758;51.992;5.890;2022-08-19T12:38:08;28.90;55.50
55828;DHT22;41758;51.992;5.890;2022-08-19T12:40:33;28.90;55.60
55828;DHT22;41758;51.992;5.890;2022-08-19T12:42:59;28.90;55.60
55828;DHT22;41758;51.992;5.890;2022-08-19T12:45:25;28.90;55.20
55828;DHT22;41758;51.992;5.890;2022-08-19T12:47:53;28.90;55.10
55828;DHT22;41758;51.992;5.890;2022-08-19T12:50:19;28.90;54.30
55828;DHT22;41758;51.992;5.890;2022-08-19T12:52:47;28.90;54.80
55828;DHT22;41758;51.992;5.890;2022-08-19T12:55:13;28.90;54.30
55828;DHT22;41758;51.992;5.890;2022-08-19T12:57:39;29.00;54.70
55828;DHT22;41758;51.992;5.890;2022-08-19T13:00:14;29.00;55.00
55828;DHT22;41758;51.992;5.890;2022-08-19T13:02:43;29.00;55.10
55828;DHT22;41758;51.992;5.890;2022-08-19T13:05:17;29.00;55.10
55828;DHT22;41758;51.992;5.890;2022-08-19T13:07:45;29.00;55.30
55828;DHT22;41758;51.992;5.890;2022-08-19T13:10:13;29.00;55.20
55828;DHT22;41758;51.992;5.890;2022-08-19T13:12:41;29.00;55.00
55828;DHT22;41758;51.992;5.890;2022-08-19T13:15:10;29.00;55.20
55828;DHT22;41758;51.992;5.890;2022-08-19T13:17:38;29.00;54.90
55828;DHT22;41758;51.992;5.890;2022-08-19T13:20:06;29.00;55.10
55828;DHT22;41758;51.992;5.890;2022-08-19T13:22:33;29.00;55.20
55828;DHT22;41758;51.992;5.890;2022-08-19T13:25:02;29.00;55.20
55828;DHT22;41758;51.992;5.890;2022-08-19T13:27:29;28.90;55.30
55828;DHT22;41758;51.992;5.890;2022-08-19T13:29:54;28.90;55.50
55828;DHT22;41758;51.992;5.890;2022-08-19T13:32:39;28.90;55.50
55828;DHT22;41758;51.992;5.890;2022-08-19T13:35:23;28.90;55.50
55828;DHT22;41758;51.992;5.890;2022-08-19T13:37:49;28.90;55.30
55828;DHT22;41758;51.992;5.890;2022-08-19T13:40:17;28.90;55.60
55828;DHT22;41758;51.992;5.890;2022-08-19T13:42:49;28.90;54.70
55828;DHT22;41758;51.992;5.890;2022-08-19T13:45:21;28.90;54.70
55828;DHT22;41758;51.992;5.890;2022-08-19T13:47:52;28.90;55.00
55828;DHT22;41758;51.992;5.890;2022-08-19T13:50:21;28.90;55.40
55828;DHT22;41758;51.992;5.890;2022-08-19T13:52:47;28.90;55.40
55828;DHT22;41758;51.992;5.890;2022-08-19T13:55:14;28.90;55.00
55828;DHT22;41758;51.992;5.890;2022-08-19T13:57:41;28.90;55.20
55828;DHT22;41758;51.992;5.890;2022-08-19T14:00:11;28.90;55.40
55828;DHT22;41758;51.992;5.890;2022-08-19T14:02:37;28.90;55.50
55828;DHT22;41758;51.992;5.890;2022-08-19T14:05:07;28.90;55.50
55828;DHT22;41758;51.992;5.890;2022-08-19T14:07:33;28.90;54.50
55828;DHT22;41758;51.992;5.890;2022-08-19T14:09:58;28.90;54.70
55828;DHT22;41758;51.992;5.890;2022-08-19T14:12:24;28.80;54.90
55828;DHT22;41758;51.992;5.890;2022-08-19T14:14:50;28.80;55.30
55828;DHT22;41758;51.992;5.890;2022-08-19T14:17:16;28.90;55.40
55828;DHT22;41758;51.992;5.890;2022-08-19T14:19:42;28.80;55.60
55828;DHT22;41758;51.992;5.890;2022-08-19T14:22:08;28.80;55.70
55828;DHT22;41758;51.992;5.890;2022-08-19T14:24:34;28.80;55.70
55828;DHT22;41758;51.992;5.890;2022-08-19T14:27:00;28.80;55.80
55828;DHT22;41758;51.992;5.890;2022-08-19T14:29:26;28.80;55.80
55828;DHT22;41758;51.992;5.890;2022-08-19T14:31:54;28.80;55.90
55828;DHT22;41758;51.992;5.890;2022-08-19T14:34:22;28.80;55.90
55828;DHT22;41758;51.992;5.890;2022-08-19T14:36:48;28.80;56.00
55828;DHT22;41758;51.992;5.890;2022-08-19T14:39:14;28.90;56.10
55828;DHT22;41758;51.992;5.890;2022-08-19T14:41:40;28.80;55.50
55828;DHT22;41758;51.992;5.890;2022-08-19T14:44:07;28.80;55.80
55828;DHT22;41758;51.992;5.890;2022-08-19T14:46:35;28.80;55.90
55828;DHT22;41758;51.992;5.890;2022-08-19T14:49:01;28.80;56.10
55828;DHT22;41758;51.992;5.890;2022-08-19T14:51:27;28.80;56.20
55828;DHT22;41758;51.992;5.890;2022-08-19T14:53:53;28.70;56.20
55828;DHT22;41758;51.992;5.890;2022-08-19T14:56:22;28.70;56.00
55828;DHT22;41758;51.992;5.890;2022-08-19T14:58:49;28.70;56.30
55828;DHT22;41758;51.992;5.890;2022-08-19T15:01:17;28.70;56.00
55828;DHT22;41758;51.992;5.890;2022-08-19T15:03:46;28.70;56.20
55828;DHT22;41758;51.992;5.890;2022-08-19T15:06:12;28.60;56.30
55828;DHT22;41758;51.992;5.890;2022-08-19T15:08:39;28.60;56.30
55828;DHT22;41758;51.992;5.890;2022-08-19T15:11:12;28.60;56.40
55828;DHT22;41758;51.992;5.890;2022-08-19T15:13:39;28.60;56.60
55828;DHT22;41758;51.992;5.890;2022-08-19T15:16:26;28.60;56.70
55828;DHT22;41758;51.992;5.890;2022-08-19T15:18:55;28.60;56.50
55828;DHT22;41758;51.992;5.890;2022-08-19T15:25:22;28.50;56.60
55828;DHT22;41758;51.992;5.890;2022-08-19T15:28:17;28.40;56.90
55828;DHT22;41758;51.992;5.890;2022-08-19T15:30:43;28.40;57.10
55828;DHT22;41758;51.992;5.890;2022-08-19T15:33:11;28.40;57.20
55828;DHT22;41758;51.992;5.890;2022-08-19T15:35:44;28.40;57.30
55828;DHT22;41758;51.992;5.890;2022-08-19T15:38:16;28.40;57.40
55828;DHT22;41758;51.992;5.890;2022-08-19T15:40:44;28.30;57.40
55828;DHT22;41758;51.992;5.890;2022-08-19T15:43:10;28.40;57.50
55828;DHT22;41758;51.992;5.890;2022-08-19T15:45:36;28.40;57.50
55828;DHT22;41758;51.992;5.890;2022-08-19T15:48:03;28.40;57.50
55828;DHT22;41758;51.992;5.890;2022-08-19T15:50:30;28.40;57.50
55828;DHT22;41758;51.992;5.890;2022-08-19T15:53:03;28.40;57.50
55828;DHT22;41758;51.992;5.890;2022-08-19T15:55:42;28.40;57.50
55828;DHT22;41758;51.992;5.890;2022-08-19T15:58:11;28.30;57.50
55828;DHT22;41758;51.992;5.890;2022-08-19T16:00:58;28.30;57.60
55828;DHT22;41758;51.992;5.890;2022-08-19T16:03:42;28.20;57.80
55828;DHT22;41758;51.992;5.890;2022-08-19T16:06:27;28.10;58.10